Time;durP1;ratioP1;P1;durP2;ratioP2;P2;SDS_P1;SDS_P2;PMS_P1;PMS_P2;Temp;Humidity;BMP_temperature;BMP_pressure;BME280_temperature;BME280_humidity;BME280_pressure;Samples;Min_cycle;Max_cycle;Signal;HPM_P1;HPM_P2
2022/05/06 00:01:04;;;;;;;6.13;4.63;;;;;;;;;;5014150;28;20372;-74
2022/05/06 00:03:30;;;;;;;6.30;4.00;;;;;;;;;;5015148;28;20034;-74
2022/05/06 00:05:56;;;;;;;8.70;4.55;;;;;;;;;;5011826;28;20041;-74
2022/05/06 00:08:22;;;;;;;10.77;3.97;;;;;;;;;;5015166;28;20892;-74
2022/05/06 00:10:48;;;;;;;7.05;4.45;;;;;;;;;;5015684;28;20117;-74
2022/05/06 00:13:14;;;;;;;10.07;4.28;;;;;;;;;;5017423;28;20029;-74
2022/05/06 00:15:40;;;;;;;5.80;3.97;;;;;;;;;;5021594;28;20040;-74
2022/05/06 00:18:07;;;;;;;8.55;4.43;;;;;;;;;;5021338;28;20037;-74
2022/05/06 00:20:33;;;;;;;7.57;4.07;;;;;;;;;;5020780;28;20037;-74
2022/05/06 00:23:00;;;;;;;6.05;4.32;;;;;;;;;;5022542;28;20026;-74
2022/05/06 00:25:26;;;;;;;7.13;4.15;;;;;;;;;;5025050;28;20072;-74
2022/05/06 00:27:53;;;;;;;7.68;4.38;;;;;;;;;;5023082;28;20029;-74
2022/05/06 00:30:19;;;;;;;5.10;4.07;;;;;;;;;;5013036;28;20037;-74
2022/05/06 00:32:45;;;;;;;6.85;4.40;;;;;;;;;;5021317;28;20045;-74
2022/05/06 00:35:11;;;;;;;6.80;4.28;;;;;;;;;;5017738;28;20044;-74
2022/05/06 00:37:37;;;;;;;12.55;4.97;;;;;;;;;;5025150;28;20021;-74
2022/05/06 00:40:03;;;;;;;6.28;3.40;;;;;;;;;;5015795;28;20116;-74
2022/05/06 00:42:29;;;;;;;5.60;3.75;;;;;;;;;;5023480;28;20386;-74
2022/05/06 00:44:55;;;;;;;8.07;4.03;;;;;;;;;;5020374;28;20120;-74
2022/05/06 00:47:22;;;;;;;6.88;3.50;;;;;;;;;;5016772;28;20121;-74
2022/05/06 00:49:49;;;;;;;6.82;4.03;;;;;;;;;;5019732;28;20411;-74
2022/05/06 00:52:16;;;;;;;11.13;3.80;;;;;;;;;;5016407;28;20033;-74
2022/05/06 00:54:42;;;;;;;7.75;3.70;;;;;;;;;;5021265;28;20063;-74
2022/05/06 00:57:08;;;;;;;8.23;4.38;;;;;;;;;;5017045;28;20026;-74
2022/05/06 01:00:17;;;;;;;8.15;4.18;;;;;;;;;;5024073;28;20047;-74
2022/05/06 01:02:24;;;;;;;6.70;4.00;;;;;;;;;;5013761;28;20050;-74
2022/05/06 01:04:52;;;;;;;13.38;4.22;;;;;;;;;;5025374;28;20038;-74
2022/05/06 01:07:20;;;;;;;8.20;4.63;;;;;;;;;;5018728;28;20037;-74
2022/05/06 01:09:49;;;;;;;7.60;4.70;;;;;;;;;;5020913;28;20092;-74
2022/05/06 01:12:15;;;;;;;10.45;4.13;;;;;;;;;;5019829;28;20056;-74
2022/05/06 01:14:41;;;;;;;8.63;4.30;;;;;;;;;;5024987;28;20500;-74
2022/05/06 01:17:09;;;;;;;8.50;4.78;;;;;;;;;;5018610;28;20475;-74
2022/05/06 01:19:35;;;;;;;7.88;4.57;;;;;;;;;;5016639;28;20034;-74
2022/05/06 01:22:01;;;;;;;8.32;5.60;;;;;;;;;;5022647;28;20152;-74
2022/05/06 01:24:27;;;;;;;11.60;6.20;;;;;;;;;;5018294;28;20029;-74
2022/05/06 01:27:00;;;;;;;9.75;6.20;;;;;;;;;;5018268;28;20037;-74
2022/05/06 01:29:27;;;;;;;12.18;5.88;;;;;;;;;;5012368;28;20036;-74
2022/05/06 01:31:54;;;;;;;10.48;6.07;;;;;;;;;;5017182;28;20095;-74
2022/05/06 01:34:22;;;;;;;8.55;6.20;;;;;;;;;;5015467;28;20029;-74
2022/05/06 01:36:50;;;;;;;11.40;5.97;;;;;;;;;;5020845;28;20387;-74
2022/05/06 01:39:18;;;;;;;10.50;5.93;;;;;;;;;;5019025;28;20091;-74
2022/05/06 01:41:45;;;;;;;7.85;5.18;;;;;;;;;;5017194;28;20042;-74
2022/05/06 01:44:14;;;;;;;7.68;5.05;;;;;;;;;;5019376;28;20048;-74
2022/05/06 01:46:41;;;;;;;12.50;5.75;;;;;;;;;;5012030;28;20081;-74
2022/05/06 01:49:08;;;;;;;12.45;5.18;;;;;;;;;;5023411;28;20037;-74
2022/05/06 01:51:34;;;;;;;8.13;4.82;;;;;;;;;;5020573;28;20060;-74
2022/05/06 01:54:00;;;;;;;9.05;5.15;;;;;;;;;;5014382;28;20025;-74
2022/05/06 01:56:28;;;;;;;9.40;5.30;;;;;;;;;;5015360;28;20025;-74
2022/05/06 01:58:54;;;;;;;7.38;4.72;;;;;;;;;;5019036;28;20026;-74
2022/05/06 02:01:20;;;;;;;9.57;5.93;;;;;;;;;;5015622;28;20037;-74
2022/05/06 02:06:30;;;;;;;8.32;5.63;;;;;;;;;;5015953;28;20850;-74
2022/05/06 02:08:56;;;;;;;10.13;6.43;;;;;;;;;;5016747;28;20034;-74
2022/05/06 02:11:22;;;;;;;13.27;7.60;;;;;;;;;;5015181;28;20049;-74
2022/05/06 02:13:49;;;;;;;9.25;6.10;;;;;;;;;;5016643;28;20026;-74
2022/05/06 02:16:16;;;;;;;10.65;7.07;;;;;;;;;;5017267;28;20384;-74
2022/05/06 02:18:42;;;;;;;10.27;7.03;;;;;;;;;;5021617;28;20068;-74
2022/05/06 02:21:08;;;;;;;12.18;6.93;;;;;;;;;;5022336;28;20137;-74
2022/05/06 02:23:35;;;;;;;9.25;6.13;;;;;;;;;;5016159;28;20430;-74
2022/05/06 02:26:01;;;;;;;11.90;7.68;;;;;;;;;;5023617;28;20444;-74
2022/05/06 02:28:27;;;;;;;10.98;7.80;;;;;;;;;;5017327;28;20029;-74
2022/05/06 02:33:37;;;;;;;10.60;6.22;;;;;;;;;;5016842;28;20079;-74
2022/05/06 02:36:03;;;;;;;10.40;6.95;;;;;;;;;;5016854;28;20030;-74
2022/05/06 02:38:29;;;;;;;9.32;6.05;;;;;;;;;;5019598;28;20446;-74
2022/05/06 02:40:56;;;;;;;9.88;6.22;;;;;;;;;;5018111;28;20030;-74
2022/05/06 02:43:22;;;;;;;11.02;5.85;;;;;;;;;;5018537;28;20037;-74
2022/05/06 02:45:48;;;;;;;8.25;4.80;;;;;;;;;;5018701;28;20080;-74
2022/05/06 02:48:14;;;;;;;9.82;5.68;;;;;;;;;;5017472;28;20029;-74
2022/05/06 02:50:41;;;;;;;7.93;5.05;;;;;;;;;;5017335;28;20361;-74
2022/05/06 02:53:07;;;;;;;12.57;4.80;;;;;;;;;;5020418;28;20114;-74
2022/05/06 02:55:33;;;;;;;14.27;6.55;;;;;;;;;;5018948;28;20697;-74
2022/05/06 02:57:59;;;;;;;8.82;4.03;;;;;;;;;;5019710;28;20033;-74
2022/05/06 03:00:26;;;;;;;5.93;4.30;;;;;;;;;;5016767;28;20037;-74
2022/05/06 03:02:52;;;;;;;10.32;5.30;;;;;;;;;;5015330;28;20068;-74
2022/05/06 03:05:18;;;;;;;9.52;5.22;;;;;;;;;;5018958;28;20045;-74
2022/05/06 03:07:44;;;;;;;8.40;5.30;;;;;;;;;;5014155;28;20053;-74
2022/05/06 03:10:11;;;;;;;10.82;4.85;;;;;;;;;;5018871;28;20474;-74
2022/05/06 03:12:38;;;;;;;12.40;6.82;;;;;;;;;;5014697;28;20033;-74
2022/05/06 03:15:04;;;;;;;16.20;6.25;;;;;;;;;;5021538;28;20037;-74
2022/05/06 03:17:31;;;;;;;11.98;5.75;;;;;;;;;;5018374;28;20021;-74
2022/05/06 03:19:57;;;;;;;9.70;6.65;;;;;;;;;;5013650;28;20053;-74
2022/05/06 03:22:24;;;;;;;11.45;6.03;;;;;;;;;;5014376;28;20021;-75
2022/05/06 03:24:50;;;;;;;10.75;6.35;;;;;;;;;;5014945;28;20037;-74
2022/05/06 03:30:00;;;;;;;11.73;5.55;;;;;;;;;;5017584;28;20052;-74
2022/05/06 03:32:28;;;;;;;10.32;7.07;;;;;;;;;;5014614;28;20021;-74
2022/05/06 03:34:54;;;;;;;10.40;6.95;;;;;;;;;;5014945;28;20037;-74
2022/05/06 03:37:20;;;;;;;9.68;7.13;;;;;;;;;;5014189;28;20137;-74
2022/05/06 03:39:46;;;;;;;11.45;7.70;;;;;;;;;;5014158;28;20022;-74
2022/05/06 03:42:13;;;;;;;11.63;6.88;;;;;;;;;;5022687;28;20046;-74
2022/05/06 03:44:40;;;;;;;9.10;6.88;;;;;;;;;;5014078;28;20030;-74
2022/05/06 03:47:06;;;;;;;9.05;5.97;;;;;;;;;;5016208;28;20129;-74
2022/05/06 03:49:32;;;;;;;13.50;6.20;;;;;;;;;;5017184;28;20125;-74
2022/05/06 03:51:58;;;;;;;8.73;6.07;;;;;;;;;;5016283;28;20041;-74
2022/05/06 03:54:26;;;;;;;9.13;5.43;;;;;;;;;;5017003;28;20030;-74
2022/05/06 03:56:52;;;;;;;7.35;5.75;;;;;;;;;;5011037;28;20578;-74
2022/05/06 03:59:18;;;;;;;10.25;7.22;;;;;;;;;;5018280;28;20030;-74
2022/05/06 04:01:44;;;;;;;12.35;6.18;;;;;;;;;;5016341;28;20126;-74
2022/05/06 04:04:10;;;;;;;7.57;5.18;;;;;;;;;;5018694;28;20041;-74
2022/05/06 04:06:36;;;;;;;9.35;5.55;;;;;;;;;;5021032;28;20037;-74
2022/05/06 04:09:02;;;;;;;7.00;4.97;;;;;;;;;;5011415;28;20045;-74
2022/05/06 04:11:28;;;;;;;8.23;5.53;;;;;;;;;;5015438;28;20757;-74
2022/05/06 04:13:53;;;;;;;9.05;5.30;;;;;;;;;;5020200;28;20037;-74
2022/05/06 04:16:19;;;;;;;7.63;5.35;;;;;;;;;;5017815;28;20045;-74
2022/05/06 04:18:46;;;;;;;12.68;6.05;;;;;;;;;;5022608;28;20043;-74
2022/05/06 04:23:56;;;;;;;9.57;6.38;;;;;;;;;;5015748;28;20087;-74
2022/05/06 04:26:22;;;;;;;8.23;5.60;;;;;;;;;;5017245;28;20046;-74
2022/05/06 04:28:48;;;;;;;10.60;6.22;;;;;;;;;;5017196;28;20083;-74
2022/05/06 04:31:14;;;;;;;14.30;6.97;;;;;;;;;;5015781;28;20037;-74
2022/05/06 04:33:41;;;;;;;8.82;6.30;;;;;;;;;;5020225;28;20119;-74
2022/05/06 04:36:07;;;;;;;9.15;5.50;;;;;;;;;;5016123;28;20084;-74
2022/05/06 04:38:33;;;;;;;12.40;6.53;;;;;;;;;;5014339;28;20029;-74
2022/05/06 04:41:01;;;;;;;8.73;6.00;;;;;;;;;;5015603;28;20057;-74
2022/05/06 04:43:27;;;;;;;7.70;5.97;;;;;;;;;;5012029;28;20489;-74
2022/05/06 04:45:54;;;;;;;9.93;6.55;;;;;;;;;;5013824;28;20479;-74
2022/05/06 04:48:20;;;;;;;15.85;7.85;;;;;;;;;;5013578;28;20030;-74
2022/05/06 04:50:46;;;;;;;9.93;7.20;;;;;;;;;;5018662;28;20486;-74
2022/05/06 04:53:13;;;;;;;13.80;5.65;;;;;;;;;;5017760;28;20048;-74
2022/05/06 04:55:41;;;;;;;11.57;7.53;;;;;;;;;;5020616;28;20042;-74
2022/05/06 04:58:08;;;;;;;12.10;7.68;;;;;;;;;;5017135;28;20463;-74
2022/05/06 05:00:34;;;;;;;9.40;7.10;;;;;;;;;;5019366;28;20041;-74
2022/05/06 05:03:01;;;;;;;12.52;8.40;;;;;;;;;;5013929;28;20368;-74
2022/05/06 05:05:27;;;;;;;17.02;9.38;;;;;;;;;;5020184;28;20545;-74
2022/05/06 05:07:54;;;;;;;11.93;7.78;;;;;;;;;;5016696;28;20808;-74
2022/05/06 05:10:21;;;;;;;16.33;9.20;;;;;;;;;;5015863;28;20048;-74
2022/05/06 05:12:47;;;;;;;18.20;10.15;;;;;;;;;;5017146;28;20029;-74
2022/05/06 05:15:15;;;;;;;14.57;10.07;;;;;;;;;;5016477;28;20364;-74
2022/05/06 05:17:41;;;;;;;17.52;9.80;;;;;;;;;;5015123;28;20034;-74
2022/05/06 05:20:08;;;;;;;15.70;10.43;;;;;;;;;;5000837;28;20034;-74
2022/05/06 05:22:36;;;;;;;16.67;11.15;;;;;;;;;;5010669;28;20467;-75
2022/05/06 05:25:02;;;;;;;18.92;12.65;;;;;;;;;;5008247;28;20029;-75
2022/05/06 05:27:28;;;;;;;16.73;11.90;;;;;;;;;;5015341;28;20870;-74
2022/05/06 05:29:54;;;;;;;18.45;12.93;;;;;;;;;;5013858;28;20042;-74
2022/05/06 05:32:20;;;;;;;19.52;11.88;;;;;;;;;;5017825;28;20034;-74
2022/05/06 05:34:46;;;;;;;14.30;10.68;;;;;;;;;;5015338;28;20496;-74
2022/05/06 05:37:12;;;;;;;16.27;10.95;;;;;;;;;;5017528;28;20085;-75
2022/05/06 05:39:38;;;;;;;17.20;10.38;;;;;;;;;;5017612;28;20029;-74
2022/05/06 05:42:04;;;;;;;20.58;12.25;;;;;;;;;;5014178;28;20517;-74
2022/05/06 05:50:00;;;;;;;16.70;11.35;;;;;;;;;;5007722;28;20125;-75
2022/05/06 05:52:26;;;;;;;16.35;10.75;;;;;;;;;;5017787;28;20030;-74
2022/05/06 05:54:52;;;;;;;16.25;10.90;;;;;;;;;;5017167;28;20466;-74
2022/05/06 05:57:18;;;;;;;18.77;12.02;;;;;;;;;;5010322;28;20030;-74
2022/05/06 05:59:44;;;;;;;18.67;10.80;;;;;;;;;;5016512;28;20112;-74
2022/05/06 06:02:11;;;;;;;17.80;11.70;;;;;;;;;;5020358;28;20067;-74
2022/05/06 06:04:38;;;;;;;18.05;11.07;;;;;;;;;;5017793;28;20045;-74
2022/05/06 06:07:05;;;;;;;16.48;12.23;;;;;;;;;;5014948;28;20719;-74
2022/05/06 06:09:32;;;;;;;16.95;10.88;;;;;;;;;;5018107;28;20049;-74
2022/05/06 06:11:58;;;;;;;15.43;11.13;;;;;;;;;;5016772;28;20026;-74
2022/05/06 06:14:24;;;;;;;16.40;11.55;;;;;;;;;;5017548;28;20037;-74
2022/05/06 06:16:50;;;;;;;17.10;12.07;;;;;;;;;;5010580;28;20036;-74
2022/05/06 06:19:16;;;;;;;19.95;11.00;;;;;;;;;;5007776;28;20152;-74
2022/05/06 06:21:43;;;;;;;12.15;9.60;;;;;;;;;;5010916;28;20969;-74
2022/05/06 06:24:09;;;;;;;12.95;9.60;;;;;;;;;;5010126;28;20049;-74
2022/05/06 06:26:35;;;;;;;14.25;10.77;;;;;;;;;;5008614;28;20159;-74
2022/05/06 06:29:05;;;;;;;11.45;9.57;;;;;;;;;;5010126;28;20071;-74
2022/05/06 06:31:32;;;;;;;19.77;11.52;;;;;;;;;;5014915;28;20033;-74
2022/05/06 06:34:01;;;;;;;14.88;12.27;;;;;;;;;;5018487;28;20075;-74
2022/05/06 06:36:27;;;;;;;14.32;11.85;;;;;;;;;;5005688;28;20040;-74
2022/05/06 06:38:53;;;;;;;13.43;10.57;;;;;;;;;;5016402;28;20042;-74
2022/05/06 06:41:20;;;;;;;14.10;10.40;;;;;;;;;;5011349;28;20464;-74
2022/05/06 06:43:47;;;;;;;18.15;11.90;;;;;;;;;;5007776;28;20029;-74
2022/05/06 06:46:13;;;;;;;14.60;10.32;;;;;;;;;;5010869;28;20131;-74
2022/05/06 06:48:40;;;;;;;13.18;10.35;;;;;;;;;;5010071;28;20742;-74
2022/05/06 06:51:06;;;;;;;13.60;9.50;;;;;;;;;;5013453;28;20030;-74
2022/05/06 06:53:32;;;;;;;15.52;11.00;;;;;;;;;;5006925;28;20030;-74
2022/05/06 06:55:58;;;;;;;18.08;10.77;;;;;;;;;;5012328;28;20042;-75
2022/05/06 06:58:27;;;;;;;18.52;11.48;;;;;;;;;;5011717;28;20026;-74
2022/05/06 07:00:53;;;;;;;11.68;8.23;;;;;;;;;;5009967;28;20077;-74
2022/05/06 07:03:20;;;;;;;12.18;8.35;;;;;;;;;;5011799;28;20030;-74
2022/05/06 07:14:02;;;;;;;11.40;8.00;;;;;;;;;;5011495;28;20070;-74
2022/05/06 07:16:28;;;;;;;12.38;10.18;;;;;;;;;;5009964;28;20539;-74
2022/05/06 07:18:54;;;;;;;15.05;9.45;;;;;;;;;;5008185;28;20399;-74
2022/05/06 07:21:20;;;;;;;13.52;10.07;;;;;;;;;;5009014;28;20041;-74
2022/05/06 07:23:46;;;;;;;11.95;8.27;;;;;;;;;;5012557;28;20052;-74
2022/05/06 07:26:13;;;;;;;15.50;10.10;;;;;;;;;;5008275;28;20042;-74
2022/05/06 07:28:39;;;;;;;12.95;9.30;;;;;;;;;;5010672;28;20419;-74
2022/05/06 07:31:05;;;;;;;12.43;8.50;;;;;;;;;;5013655;28;20042;-74
2022/05/06 07:33:31;;;;;;;13.52;9.60;;;;;;;;;;5012554;28;20846;-74
2022/05/06 07:35:57;;;;;;;12.30;8.45;;;;;;;;;;5012017;28;20038;-74
2022/05/06 07:38:23;;;;;;;10.15;7.25;;;;;;;;;;5007054;28;20740;-74
2022/05/06 07:40:49;;;;;;;13.93;9.27;;;;;;;;;;5011392;28;20561;-74
2022/05/06 07:43:15;;;;;;;14.18;8.80;;;;;;;;;;5011775;28;20060;-74
2022/05/06 07:45:42;;;;;;;12.45;9.25;;;;;;;;;;5015628;28;20125;-74
2022/05/06 07:48:09;;;;;;;9.90;7.90;;;;;;;;;;5016802;28;20025;-74
2022/05/06 07:50:37;;;;;;;10.15;8.13;;;;;;;;;;5009174;28;20044;-74
2022/05/06 07:53:03;;;;;;;12.00;8.00;;;;;;;;;;5015225;28;20033;-74
2022/05/06 07:55:29;;;;;;;10.70;8.65;;;;;;;;;;5006894;28;20038;-74
2022/05/06 07:57:57;;;;;;;14.10;9.02;;;;;;;;;;5012278;28;20112;-74
2022/05/06 08:00:24;;;;;;;10.90;8.10;;;;;;;;;;5016610;28;20468;-74
2022/05/06 08:05:35;;;;;;;9.52;7.68;;;;;;;;;;5014625;28;20095;-74
2022/05/06 08:08:01;;;;;;;10.68;6.75;;;;;;;;;;5011063;28;20480;-74
2022/05/06 08:10:27;;;;;;;10.80;7.93;;;;;;;;;;5013205;28;20037;-74
2022/05/06 08:12:53;;;;;;;10.20;7.18;;;;;;;;;;5010223;28;20030;-74
2022/05/06 08:15:19;;;;;;;12.60;6.60;;;;;;;;;;5015148;28;20121;-74
2022/05/06 08:17:45;;;;;;;8.65;6.63;;;;;;;;;;5007660;28;20026;-74
2022/05/06 08:20:12;;;;;;;8.60;6.47;;;;;;;;;;5011558;28;20042;-74
2022/05/06 08:22:38;;;;;;;10.23;6.25;;;;;;;;;;5015041;28;20033;-74
2022/05/06 08:25:05;;;;;;;10.13;6.97;;;;;;;;;;5008479;28;20525;-74
2022/05/06 08:27:38;;;;;;;9.75;7.22;;;;;;;;;;5014027;28;20117;-74
2022/05/06 08:30:05;;;;;;;9.13;6.40;;;;;;;;;;5011903;28;20124;-74
2022/05/06 08:32:31;;;;;;;8.43;6.22;;;;;;;;;;5015987;28;20026;-74
2022/05/06 08:34:57;;;;;;;8.93;5.68;;;;;;;;;;5013947;28;20486;-74
2022/05/06 08:37:24;;;;;;;8.57;5.70;;;;;;;;;;5010955;28;20034;-74
2022/05/06 08:39:50;;;;;;;12.20;5.60;;;;;;;;;;5017277;28;20045;-74
2022/05/06 08:42:23;;;;;;;11.95;5.82;;;;;;;;;;5018141;28;20037;-74
2022/05/06 08:53:06;;;;;;;9.57;7.15;;;;;;;;;;5010939;28;20041;-74
2022/05/06 08:55:33;;;;;;;12.40;6.40;;;;;;;;;;5013371;28;20038;-75
2022/05/06 08:57:59;;;;;;;9.70;6.18;;;;;;;;;;5011574;28;20127;-74
2022/05/06 09:00:26;;;;;;;12.32;6.65;;;;;;;;;;5013454;28;20084;-74
2022/05/06 09:02:52;;;;;;;9.95;6.10;;;;;;;;;;5012007;28;20030;-74
2022/05/06 09:05:19;;;;;;;10.95;6.03;;;;;;;;;;5017901;28;20065;-74
2022/05/06 09:07:55;;;;;;;11.88;7.03;;;;;;;;;;5010347;28;20041;-75
2022/05/06 09:10:21;;;;;;;11.35;7.50;;;;;;;;;;5016921;28;20038;-74
2022/05/06 09:12:52;;;;;;;9.52;6.78;;;;;;;;;;5012706;28;20421;-75
2022/05/06 09:18:03;;;;;;;14.70;6.18;;;;;;;;;;5006653;28;20100;-74
2022/05/06 09:20:30;;;;;;;8.85;5.75;;;;;;;;;;5013219;28;20483;-74
2022/05/06 09:22:56;;;;;;;8.50;5.70;;;;;;;;;;5013341;28;20378;-74
2022/05/06 09:25:35;;;;;;;9.60;6.40;;;;;;;;;;5017401;28;20123;-74
2022/05/06 09:28:01;;;;;;;9.73;6.80;;;;;;;;;;5013748;28;20033;-74
2022/05/06 09:30:27;;;;;;;10.43;6.00;;;;;;;;;;5009183;28;20042;-74
2022/05/06 09:32:53;;;;;;;8.93;6.38;;;;;;;;;;5008278;28;20446;-74
2022/05/06 09:35:19;;;;;;;8.20;5.53;;;;;;;;;;5014071;28;20045;-74
2022/05/06 09:37:47;;;;;;;9.40;5.05;;;;;;;;;;5013711;28;20021;-74
2022/05/06 09:40:13;;;;;;;7.85;5.32;;;;;;;;;;5007941;28;20064;-75
2022/05/06 09:42:40;;;;;;;9.18;6.07;;;;;;;;;;5016788;28;20546;-74
2022/05/06 09:45:07;;;;;;;9.63;6.00;;;;;;;;;;5015050;28;20120;-74
2022/05/06 09:47:33;;;;;;;12.88;6.25;;;;;;;;;;5008963;28;20065;-74
2022/05/06 09:50:00;;;;;;;10.00;5.90;;;;;;;;;;5011270;28;20490;-74
2022/05/06 09:52:26;;;;;;;9.10;5.68;;;;;;;;;;5009696;28;20064;-74
2022/05/06 09:54:53;;;;;;;8.75;5.40;;;;;;;;;;5012365;28;20033;-75
2022/05/06 09:57:19;;;;;;;7.13;5.13;;;;;;;;;;5014839;28;20026;-74
2022/05/06 09:59:46;;;;;;;9.52;5.55;;;;;;;;;;5009848;28;20425;-74
2022/05/06 10:02:13;;;;;;;8.93;5.45;;;;;;;;;;5010332;28;20033;-74
2022/05/06 10:04:39;;;;;;;9.05;5.30;;;;;;;;;;5012411;28;20875;-74
2022/05/06 10:07:07;;;;;;;9.90;4.50;;;;;;;;;;5009770;28;20034;-74
2022/05/06 10:09:40;;;;;;;8.50;5.40;;;;;;;;;;5009214;28;20099;-74
2022/05/06 10:12:07;;;;;;;8.98;5.32;;;;;;;;;;5014751;28;20565;-74
2022/05/06 10:14:35;;;;;;;6.97;4.68;;;;;;;;;;5016022;28;20038;-75
2022/05/06 10:17:01;;;;;;;6.55;4.50;;;;;;;;;;5015363;28;20026;-74
2022/05/06 10:19:27;;;;;;;7.35;4.10;;;;;;;;;;5011916;28;20041;-74
2022/05/06 10:21:53;;;;;;;6.57;3.45;;;;;;;;;;5007806;28;20793;-74
2022/05/06 10:24:22;;;;;;;9.30;3.42;;;;;;;;;;5016206;28;20033;-74
2022/05/06 10:26:49;;;;;;;5.47;3.10;;;;;;;;;;5010078;28;20038;-74
2022/05/06 10:32:49;;;;;;;10.52;3.20;;;;;;;;;;5013040;28;20163;-74
2022/05/06 10:35:11;;;;;;;6.50;3.42;;;;;;;;;;5008165;28;20666;-74
2022/05/06 10:37:43;;;;;;;7.15;4.63;;;;;;;;;;5012506;28;20143;-74
2022/05/06 10:40:24;;;;;;;6.68;3.95;;;;;;;;;;5010754;28;20164;-75
2022/05/06 10:42:51;;;;;;;8.35;3.72;;;;;;;;;;4996803;28;20026;-74
2022/05/06 10:45:24;;;;;;;6.30;4.18;;;;;;;;;;5011374;28;20049;-74
2022/05/06 10:47:50;;;;;;;5.43;3.30;;;;;;;;;;5008673;28;20033;-74
2022/05/06 10:50:18;;;;;;;9.80;3.63;;;;;;;;;;5011934;28;20056;-74
2022/05/06 10:52:45;;;;;;;6.35;3.63;;;;;;;;;;5007719;28;20148;-74
2022/05/06 10:55:13;;;;;;;6.03;3.30;;;;;;;;;;5012009;28;20052;-74
2022/05/06 10:57:45;;;;;;;5.45;3.25;;;;;;;;;;5010384;28;20490;-74
2022/05/06 11:00:11;;;;;;;4.32;3.03;;;;;;;;;;5009046;28;20033;-74
2022/05/06 11:02:38;;;;;;;6.93;3.53;;;;;;;;;;5009792;28;20044;-74
2022/05/06 11:05:05;;;;;;;6.65;2.75;;;;;;;;;;5013313;28;20033;-74
2022/05/06 11:07:32;;;;;;;5.47;1.50;;;;;;;;;;5010408;28;20459;-74
2022/05/06 11:09:58;;;;;;;4.55;2.60;;;;;;;;;;5013157;28;20042;-74
2022/05/06 11:12:28;;;;;;;4.53;2.28;;;;;;;;;;5009691;28;20034;-74
2022/05/06 11:14:57;;;;;;;5.93;1.70;;;;;;;;;;5015410;28;20041;-74
2022/05/06 11:17:27;;;;;;;5.13;1.98;;;;;;;;;;5014627;28;20040;-74
2022/05/06 11:19:53;;;;;;;4.43;1.75;;;;;;;;;;5007934;28;20171;-74
2022/05/06 11:22:20;;;;;;;3.58;1.30;;;;;;;;;;5004929;28;20033;-74
2022/05/06 11:24:46;;;;;;;3.65;1.20;;;;;;;;;;5007763;28;20467;-74
2022/05/06 11:27:17;;;;;;;1.95;0.95;;;;;;;;;;5011788;28;20045;-74
2022/05/06 11:29:50;;;;;;;5.85;1.20;;;;;;;;;;5004903;28;20037;-74
2022/05/06 11:32:18;;;;;;;2.83;1.00;;;;;;;;;;5011324;28;20071;-74
2022/05/06 11:34:49;;;;;;;2.72;1.00;;;;;;;;;;5007035;28;20030;-74
2022/05/06 11:37:22;;;;;;;1.50;0.90;;;;;;;;;;5011711;28;20084;-74
2022/05/06 11:39:49;;;;;;;6.20;0.90;;;;;;;;;;5006518;28;20386;-74
2022/05/06 11:42:22;;;;;;;4.50;1.00;;;;;;;;;;5012430;28;20045;-74
2022/05/06 11:48:05;;;;;;;3.17;0.80;;;;;;;;;;4983900;28;20053;-74
2022/05/06 11:50:33;;;;;;;3.30;0.70;;;;;;;;;;5003300;28;20072;-74
2022/05/06 11:53:01;;;;;;;2.05;0.80;;;;;;;;;;5013595;28;20116;-74
2022/05/06 11:55:27;;;;;;;1.92;0.63;;;;;;;;;;5012121;28;20030;-74
2022/05/06 11:57:53;;;;;;;2.53;0.70;;;;;;;;;;5009811;28;20100;-74
2022/05/06 12:00:20;;;;;;;1.63;0.60;;;;;;;;;;5007797;28;20072;-74
2022/05/06 12:02:50;;;;;;;1.33;0.70;;;;;;;;;;5010259;28;20136;-74
2022/05/06 12:05:16;;;;;;;1.83;0.70;;;;;;;;;;5012346;28;20029;-74
2022/05/06 12:07:42;;;;;;;1.58;0.47;;;;;;;;;;5011532;28;20034;-74
2022/05/06 12:10:10;;;;;;;2.15;0.63;;;;;;;;;;5009149;28;20423;-74
2022/05/06 12:12:51;;;;;;;2.03;0.60;;;;;;;;;;5012829;28;20427;-74
2022/05/06 12:15:17;;;;;;;1.52;0.57;;;;;;;;;;5011442;28;20876;-74
2022/05/06 12:17:43;;;;;;;2.25;0.63;;;;;;;;;;5007708;28;20026;-75
2022/05/06 12:20:28;;;;;;;1.23;0.60;;;;;;;;;;5009466;28;20038;-74
2022/05/06 12:23:00;;;;;;;1.77;0.70;;;;;;;;;;5013410;28;20034;-74
2022/05/06 12:25:27;;;;;;;1.95;0.60;;;;;;;;;;5005394;28;20046;-75
2022/05/06 12:28:12;;;;;;;3.95;0.80;;;;;;;;;;5010711;28;20049;-74
2022/05/06 12:30:38;;;;;;;4.03;0.90;;;;;;;;;;5009330;28;20042;-74
2022/05/06 12:33:08;;;;;;;2.38;0.60;;;;;;;;;;5007792;28;20387;-74
2022/05/06 12:35:56;;;;;;;2.13;0.52;;;;;;;;;;5005417;28;20038;-74
2022/05/06 12:38:26;;;;;;;3.60;0.60;;;;;;;;;;5010653;28;20034;-74
2022/05/06 12:40:53;;;;;;;2.92;0.60;;;;;;;;;;5005626;28;20037;-74
2022/05/06 12:43:28;;;;;;;4.30;0.60;;;;;;;;;;5011237;28;20042;-74
2022/05/06 12:46:00;;;;;;;4.72;0.50;;;;;;;;;;5011727;28;20163;-74
2022/05/06 12:51:11;;;;;;;2.58;0.57;;;;;;;;;;5004510;28;19932;-74
2022/05/06 12:53:37;;;;;;;1.35;0.50;;;;;;;;;;5008121;28;20704;-74
2022/05/06 12:56:03;;;;;;;2.08;0.47;;;;;;;;;;5012808;28;20075;-74
2022/05/06 12:58:29;;;;;;;2.33;0.60;;;;;;;;;;5013878;28;20038;-74
2022/05/06 13:00:59;;;;;;;1.63;0.50;;;;;;;;;;5009362;28;20030;-74
2022/05/06 13:03:25;;;;;;;3.38;0.70;;;;;;;;;;5003095;28;20729;-74
2022/05/06 13:05:51;;;;;;;0.90;0.40;;;;;;;;;;5010807;28;20040;-74
2022/05/06 13:08:18;;;;;;;5.80;0.70;;;;;;;;;;5009853;28;20038;-75
2022/05/06 13:10:44;;;;;;;5.05;0.80;;;;;;;;;;5010566;28;20022;-74
2022/05/06 13:13:10;;;;;;;2.72;0.50;;;;;;;;;;5008698;28;20048;-74
2022/05/06 13:15:36;;;;;;;2.55;0.50;;;;;;;;;;5016225;28;20026;-74
2022/05/06 13:18:02;;;;;;;4.20;0.55;;;;;;;;;;5016674;28;20079;-74
2022/05/06 13:20:28;;;;;;;2.15;0.47;;;;;;;;;;5011532;28;20121;-74
2022/05/06 13:22:54;;;;;;;2.20;0.43;;;;;;;;;;5010571;28;20052;-74
2022/05/06 13:25:20;;;;;;;6.28;0.70;;;;;;;;;;5013681;28;20030;-74
2022/05/06 13:27:46;;;;;;;3.05;0.40;;;;;;;;;;5011961;28;20064;-74
2022/05/06 13:30:12;;;;;;;2.97;0.50;;;;;;;;;;5009598;28;20113;-74
2022/05/06 13:32:38;;;;;;;3.20;0.43;;;;;;;;;;5016558;28;20030;-74
2022/05/06 13:35:05;;;;;;;2.70;0.60;;;;;;;;;;5010960;28;20525;-74
2022/05/06 13:37:31;;;;;;;1.17;0.57;;;;;;;;;;5012733;28;20486;-74
2022/05/06 13:39:57;;;;;;;3.72;0.50;;;;;;;;;;5012819;28;20037;-74
2022/05/06 13:42:23;;;;;;;2.88;0.50;;;;;;;;;;5013378;28;20042;-74
2022/05/06 13:44:49;;;;;;;1.13;0.45;;;;;;;;;;5012262;28;20060;-74
2022/05/06 13:47:16;;;;;;;2.28;0.47;;;;;;;;;;5010261;28;20050;-74
2022/05/06 13:49:43;;;;;;;1.63;0.60;;;;;;;;;;5012537;28;20109;-74
2022/05/06 13:52:09;;;;;;;1.17;0.45;;;;;;;;;;5010608;28;20038;-74
2022/05/06 13:54:35;;;;;;;2.72;0.60;;;;;;;;;;5013988;28;20077;-74
2022/05/06 13:59:46;;;;;;;2.75;0.60;;;;;;;;;;5007726;28;20044;-74
2022/05/06 14:02:12;;;;;;;2.42;0.70;;;;;;;;;;5010217;28;20555;-74
2022/05/06 14:04:40;;;;;;;3.38;0.80;;;;;;;;;;5016080;28;20034;-74
2022/05/06 14:07:06;;;;;;;4.88;0.40;;;;;;;;;;5012799;28;20038;-74
2022/05/06 14:09:33;;;;;;;5.20;0.70;;;;;;;;;;5015451;28;20116;-74
2022/05/06 14:12:00;;;;;;;1.45;0.40;;;;;;;;;;5014168;28;20045;-74
2022/05/06 14:14:26;;;;;;;2.35;0.43;;;;;;;;;;5007812;28;20352;-74
2022/05/06 14:16:52;;;;;;;2.00;0.52;;;;;;;;;;5012443;28;20030;-74
2022/05/06 14:19:18;;;;;;;3.45;0.60;;;;;;;;;;5014498;28;21080;-75
2022/05/06 14:21:44;;;;;;;0.80;0.32;;;;;;;;;;5012412;28;20045;-74
2022/05/06 14:24:10;;;;;;;1.55;0.40;;;;;;;;;;5008777;28;20041;-74
2022/05/06 14:26:36;;;;;;;2.53;0.70;;;;;;;;;;5010644;28;20056;-74
2022/05/06 14:29:02;;;;;;;1.92;0.40;;;;;;;;;;5010267;28;20069;-74
2022/05/06 14:31:28;;;;;;;1.30;0.52;;;;;;;;;;5012765;28;20059;-74
2022/05/06 14:33:55;;;;;;;2.97;0.50;;;;;;;;;;5011912;28;20037;-74
2022/05/06 14:36:21;;;;;;;2.95;0.60;;;;;;;;;;5012011;28;20029;-75
2022/05/06 14:38:48;;;;;;;2.88;0.50;;;;;;;;;;5010773;28;20053;-74
2022/05/06 14:41:14;;;;;;;3.47;0.40;;;;;;;;;;5007104;28;20021;-74
2022/05/06 14:43:40;;;;;;;2.95;0.47;;;;;;;;;;5008681;28;20419;-74
2022/05/06 14:46:07;;;;;;;3.88;0.70;;;;;;;;;;5006634;28;20041;-74
2022/05/06 14:48:33;;;;;;;0.82;0.50;;;;;;;;;;5006566;28;20037;-74
2022/05/06 14:50:59;;;;;;;2.05;0.55;;;;;;;;;;5008146;28;20045;-74
2022/05/06 14:53:26;;;;;;;3.10;0.50;;;;;;;;;;5011761;28;20084;-74
2022/05/06 14:55:52;;;;;;;1.50;0.50;;;;;;;;;;5015127;28;20036;-75
2022/05/06 14:58:18;;;;;;;3.85;0.50;;;;;;;;;;5012351;28;20045;-74
2022/05/06 15:00:44;;;;;;;3.05;0.70;;;;;;;;;;5007054;28;20117;-74
2022/05/06 15:03:10;;;;;;;1.85;0.60;;;;;;;;;;5006960;28;20044;-74
2022/05/06 15:05:36;;;;;;;2.95;0.50;;;;;;;;;;5008004;28;20030;-74
2022/05/06 15:08:03;;;;;;;1.63;0.60;;;;;;;;;;5016007;28;20056;-74
2022/05/06 15:10:29;;;;;;;3.38;0.77;;;;;;;;;;5010988;28;20029;-75
2022/05/06 15:12:55;;;;;;;3.40;1.00;;;;;;;;;;5008880;28;20100;-74
2022/05/06 15:15:21;;;;;;;2.75;0.73;;;;;;;;;;5011304;28;20068;-74
2022/05/06 15:17:48;;;;;;;4.35;0.75;;;;;;;;;;5011842;28;20049;-74
2022/05/06 15:20:14;;;;;;;3.72;0.73;;;;;;;;;;5011267;28;20125;-74
2022/05/06 15:22:40;;;;;;;2.25;0.73;;;;;;;;;;5011589;28;20061;-74
2022/05/06 15:25:07;;;;;;;2.40;0.90;;;;;;;;;;5013427;28;20041;-74